createdAt,value
2022-09-07T00:02:26.632Z,8.74
2022-09-07T00:04:58.814Z,8.74
2022-09-07T00:07:32.789Z,8.74
2022-09-07T00:10:05.204Z,8.69
2022-09-07T00:12:38.155Z,8.66
2022-09-07T00:15:12.956Z,8.65
2022-09-07T00:17:44.166Z,8.62
2022-09-07T00:20:15.861Z,8.75
2022-09-07T00:22:47.947Z,8.63
2022-09-07T00:25:20.016Z,8.63
2022-09-07T00:27:52.105Z,8.62
2022-09-07T00:30:24.202Z,8.62
2022-09-07T00:32:56.247Z,8.60
2022-09-07T00:35:29.190Z,8.60
2022-09-07T00:38:01.486Z,8.60
2022-09-07T00:40:33.600Z,8.68
2022-09-07T00:43:07.341Z,8.65
2022-09-07T00:45:39.687Z,8.62
2022-09-07T00:48:16.293Z,8.61
2022-09-07T00:50:57.686Z,8.60
2022-09-07T00:53:38.556Z,8.60
2022-09-07T00:56:12.761Z,8.65
2022-09-07T00:58:46.843Z,8.63
2022-09-07T01:01:19.519Z,8.61
2022-09-07T01:03:53.775Z,8.57
2022-09-07T01:06:28.786Z,8.57
2022-09-07T01:09:06.715Z,8.63
2022-09-07T01:11:43.839Z,8.61
2022-09-07T01:14:19.212Z,8.55
2022-09-07T01:16:54.402Z,8.54
2022-09-07T01:19:51.511Z,8.55
2022-09-07T01:22:35.342Z,8.54
2022-09-07T01:25:13.027Z,8.51
2022-09-07T01:28:04.285Z,8.48
2022-09-07T01:30:39.394Z,8.43
2022-09-07T01:33:20.454Z,8.38
2022-09-07T01:36:13.271Z,8.29
2022-09-07T01:38:57.090Z,8.19
2022-09-07T01:41:54.288Z,8.11
2022-09-07T01:44:32.230Z,8.05
2022-09-07T01:47:16.161Z,7.99
2022-09-07T01:49:51.399Z,7.97
2022-09-07T01:52:45.929Z,7.94
2022-09-07T01:55:34.105Z,7.85
2022-09-07T01:58:18.089Z,7.87
2022-09-07T02:00:56.191Z,7.83
2022-09-07T02:03:31.166Z,7.83
2022-09-07T02:06:09.016Z,7.85
2022-09-07T02:08:44.301Z,7.88
2022-09-07T02:11:27.683Z,7.88
2022-09-07T02:14:04.738Z,7.92
2022-09-07T02:16:39.597Z,7.94
2022-09-07T02:19:15.021Z,7.98
2022-09-07T02:21:50.108Z,7.98
2022-09-07T02:24:37.829Z,8.00
2022-09-07T02:27:15.534Z,8.00
2022-09-07T02:29:48.061Z,8.01
2022-09-07T02:32:20.634Z,8.05
2022-09-07T02:34:53.018Z,8.00
2022-09-07T02:37:26.508Z,7.96
2022-09-07T02:40:00.863Z,7.95
2022-09-07T02:42:33.974Z,7.99
2022-09-07T02:45:08.620Z,8.18
2022-09-07T02:47:52.913Z,8.08
2022-09-07T02:50:30.850Z,8.07
2022-09-07T02:53:22.440Z,8.18
2022-09-07T02:56:03.378Z,8.20
2022-09-07T02:59:06.885Z,8.21
2022-09-07T03:01:53.644Z,8.24
2022-09-07T03:04:29.072Z,8.28
2022-09-07T03:07:19.360Z,8.35
2022-09-07T03:09:55.219Z,8.34
2022-09-07T03:12:28.758Z,8.34
2022-09-07T03:15:01.036Z,8.33
2022-09-07T03:17:33.309Z,8.38
2022-09-07T03:20:05.968Z,8.39
2022-09-07T03:22:38.315Z,8.40
2022-09-07T03:25:10.861Z,8.42
2022-09-07T03:27:43.235Z,8.52
2022-09-07T03:30:15.815Z,8.47
2022-09-07T03:32:48.910Z,8.46
2022-09-07T03:35:21.261Z,8.43
2022-09-07T03:37:53.526Z,8.41
2022-09-07T03:40:25.782Z,8.43
2022-09-07T03:42:58.089Z,8.44
2022-09-07T03:45:30.431Z,8.50
2022-09-07T03:48:02.719Z,8.56
2022-09-07T03:50:34.910Z,8.56
2022-09-07T03:53:07.504Z,8.58
2022-09-07T03:55:40.105Z,8.58
2022-09-07T03:58:12.393Z,8.62
2022-09-07T04:00:44.841Z,8.64
2022-09-07T04:03:17.028Z,8.69
2022-09-07T04:05:49.044Z,8.71
2022-09-07T04:08:23.194Z,8.70
2022-09-07T04:10:57.780Z,8.65
2022-09-07T04:13:31.705Z,8.61
2022-09-07T04:16:12.597Z,8.52
2022-09-07T04:18:45.167Z,8.47
2022-09-07T04:21:18.288Z,8.41
2022-09-07T04:23:51.229Z,8.41
2022-09-07T04:26:26.069Z,8.50
2022-09-07T04:28:58.440Z,8.60
2022-09-07T04:31:31.477Z,8.72
2022-09-07T04:34:04.747Z,8.78
2022-09-07T04:36:37.370Z,8.89
2022-09-07T04:39:11.807Z,9.01
2022-09-07T04:41:43.358Z,9.22
2022-09-07T04:44:17.091Z,9.53
2022-09-07T04:46:48.947Z,9.62
2022-09-07T04:49:21.137Z,9.89
2022-09-07T04:51:53.499Z,9.94
2022-09-07T04:54:26.738Z,10.06
2022-09-07T04:56:59.237Z,10.06
2022-09-07T04:59:31.590Z,10.19
2022-09-07T05:02:05.238Z,10.36
2022-09-07T05:04:38.437Z,10.41
2022-09-07T05:07:10.496Z,10.50
2022-09-07T05:09:43.401Z,10.51
2022-09-07T05:12:15.707Z,10.50
2022-09-07T05:14:47.896Z,10.57
2022-09-07T05:17:20.532Z,10.48
2022-09-07T05:19:53.228Z,10.43
2022-09-07T05:22:25.973Z,10.45
2022-09-07T05:24:58.324Z,10.61
2022-09-07T05:27:32.495Z,10.73
2022-09-07T05:30:06.682Z,10.79
2022-09-07T05:32:40.355Z,10.88
2022-09-07T05:35:12.814Z,10.99
2022-09-07T05:37:46.494Z,11.03
2022-09-07T05:40:21.088Z,11.04
2022-09-07T05:42:53.978Z,11.13
2022-09-07T05:45:28.170Z,11.08
2022-09-07T05:48:01.085Z,11.11
2022-09-07T05:50:33.574Z,11.23
2022-09-07T05:53:06.610Z,11.31
2022-09-07T05:55:39.566Z,11.35
2022-09-07T05:58:12.011Z,11.18
2022-09-07T06:00:44.937Z,10.96
2022-09-07T06:03:17.555Z,10.83
2022-09-07T06:05:50.593Z,10.93
2022-09-07T06:08:23.759Z,11.60
2022-09-07T06:10:59.211Z,12.16
2022-09-07T06:13:32.151Z,12.36
2022-09-07T06:16:06.382Z,12.60
2022-09-07T06:18:43.454Z,13.31
2022-09-07T06:21:19.313Z,13.80
2022-09-07T06:23:52.477Z,13.76
2022-09-07T06:26:25.261Z,14.45
2022-09-07T06:28:58.336Z,15.02
2022-09-07T06:31:30.936Z,15.14
2022-09-07T06:34:03.543Z,15.21
2022-09-07T06:36:37.145Z,14.95
2022-09-07T06:39:12.852Z,15.09
2022-09-07T06:42:00.965Z,15.79
2022-09-07T06:44:21.017Z,17.13
2022-09-07T06:49:28.454Z,19.89
2022-09-07T06:52:00.603Z,20.61
2022-09-07T06:55:03.003Z,20.21
2022-09-07T06:57:09.504Z,20.11
2022-09-07T06:59:41.961Z,19.78
2022-09-07T07:02:15.265Z,19.23
2022-09-07T07:04:48.141Z,18.47
2022-09-07T07:07:20.419Z,17.70
2022-09-07T07:09:52.511Z,17.54
2022-09-07T07:14:55.592Z,17.30
2022-09-07T07:17:27.773Z,16.96
2022-09-07T07:19:59.772Z,16.55
2022-09-07T07:22:48.667Z,16.13
2022-09-07T07:25:08.004Z,15.86
2022-09-07T07:27:40.687Z,15.76
2022-09-07T07:30:16.367Z,15.66
2022-09-07T07:32:49.628Z,15.62
2022-09-07T07:35:23.299Z,15.64
2022-09-07T07:40:31.853Z,15.54
2022-09-07T07:43:03.774Z,15.45
2022-09-07T07:48:13.206Z,15.48
2022-09-07T07:50:45.541Z,15.51
2022-09-07T07:55:52.213Z,15.62
2022-09-07T07:58:26.166Z,15.48
2022-09-07T08:01:04.141Z,15.49
2022-09-07T08:03:37.546Z,15.54
2022-09-07T08:06:13.472Z,15.64
2022-09-07T08:08:46.230Z,15.82
2022-09-07T08:11:21.138Z,15.81
2022-09-07T08:13:55.071Z,15.90
2022-09-07T08:16:27.290Z,15.88
2022-09-07T08:19:00.299Z,15.88
2022-09-07T08:21:32.816Z,15.36
2022-09-07T08:24:05.251Z,15.36
2022-09-07T08:26:38.384Z,15.47
2022-09-07T08:29:10.349Z,15.51
2022-09-07T08:31:42.955Z,15.64
2022-09-07T08:34:15.243Z,15.88
2022-09-07T08:36:47.474Z,15.75
2022-09-07T08:39:20.366Z,15.75
2022-09-07T08:41:55.619Z,15.72
2022-09-07T08:44:48.408Z,15.80
2022-09-07T08:47:38.848Z,15.60
2022-09-07T08:50:38.134Z,15.03
2022-09-07T08:53:15.972Z,15.03
2022-09-07T08:55:58.356Z,14.80
2022-09-07T08:58:51.343Z,14.65
2022-09-07T09:01:41.125Z,14.65
2022-09-07T09:04:17.523Z,14.82
2022-09-07T09:07:02.488Z,15.00
2022-09-07T09:09:45.632Z,15.20
2022-09-07T09:12:26.884Z,15.35
2022-09-07T09:15:21.312Z,15.57
2022-09-07T09:17:59.283Z,15.91
2022-09-07T09:20:52.561Z,16.16
2022-09-07T09:23:36.670Z,16.32
2022-09-07T09:26:29.026Z,16.44
2022-09-07T09:29:15.199Z,16.62
2022-09-07T09:31:47.399Z,16.62
2022-09-07T09:34:23.748Z,16.91
2022-09-07T09:36:56.917Z,16.99
2022-09-07T09:39:33.548Z,16.82
2022-09-07T09:42:18.776Z,16.73
2022-09-07T09:44:51.155Z,16.73
2022-09-07T09:47:33.070Z,16.84
2022-09-07T09:50:11.144Z,16.82
2022-09-07T09:52:51.575Z,17.06
2022-09-07T09:55:34.393Z,17.26
2022-09-07T10:01:20.532Z,17.19
2022-09-07T10:05:54.548Z,17.16
2022-09-07T10:08:30.041Z,17.27
2022-09-07T10:11:07.826Z,17.26
2022-09-07T10:13:46.894Z,16.98
2022-09-07T10:16:19.230Z,16.95
2022-09-07T10:18:59.624Z,17.02
2022-09-07T10:21:33.548Z,17.13
2022-09-07T10:24:11.632Z,16.95
2022-09-07T10:26:44.864Z,16.44
2022-09-07T10:29:36.441Z,16.44
2022-09-07T10:32:29.489Z,16.29
2022-09-07T10:35:31.384Z,16.15
2022-09-07T10:38:19.095Z,16.08
2022-09-07T10:41:00.180Z,16.02
2022-09-07T10:43:35.169Z,16.00
2022-09-07T10:49:15.629Z,15.61
2022-09-07T10:52:11.518Z,15.45
2022-09-07T10:55:08.937Z,15.29
2022-09-07T10:57:55.915Z,15.11
2022-09-07T11:00:31.289Z,14.85
2022-09-07T11:03:25.324Z,14.52
2022-09-07T11:06:18.216Z,14.12
2022-09-07T11:09:29.357Z,13.77
2022-09-07T11:12:05.647Z,13.39
2022-09-07T11:14:52.929Z,12.98
2022-09-07T11:17:30.990Z,12.65
2022-09-07T11:20:17.910Z,12.22
2022-09-07T11:22:55.986Z,11.81
2022-09-07T11:25:40.442Z,11.50
2022-09-07T11:28:34.953Z,11.32
2022-09-07T11:31:09.985Z,11.13
2022-09-07T11:36:30.895Z,10.86
2022-09-07T11:39:06.580Z,10.78
2022-09-07T11:41:45.187Z,10.81
2022-09-07T11:44:20.115Z,10.82
2022-09-07T11:46:57.327Z,10.79
2022-09-07T11:49:30.913Z,10.85
2022-09-07T11:52:09.007Z,10.92
2022-09-07T11:54:58.458Z,10.98
2022-09-07T11:58:04.872Z,10.92
2022-09-07T12:00:51.793Z,10.90
2022-09-07T12:03:27.522Z,10.85
2022-09-07T12:06:19.128Z,10.85
2022-09-07T12:09:16.669Z,10.84
2022-09-07T12:12:26.443Z,10.78
2022-09-07T12:15:19.323Z,10.66
2022-09-07T12:18:10.453Z,10.59
2022-09-07T12:20:48.221Z,10.49
2022-09-07T12:23:24.706Z,10.44
2022-09-07T12:26:15.868Z,10.43
2022-09-07T12:28:53.671Z,10.42
2022-09-07T12:31:57.681Z,10.46
2022-09-07T12:34:35.493Z,10.45
2022-09-07T12:37:12.535Z,10.42
2022-09-07T12:39:45.507Z,10.37
2022-09-07T12:42:37.163Z,10.35
2022-09-07T12:45:31.070Z,10.30
2022-09-07T12:48:15.124Z,10.29
2022-09-07T12:51:08.667Z,10.33
2022-09-07T12:54:02.320Z,10.34
2022-09-07T12:56:46.425Z,10.37
2022-09-07T12:59:33.534Z,10.45
2022-09-07T13:02:29.999Z,10.54
2022-09-07T13:05:19.977Z,10.62
2022-09-07T13:08:25.753Z,10.66
2022-09-07T13:10:59.456Z,10.72
2022-09-07T13:16:15.871Z,10.81
2022-09-07T13:18:48.019Z,10.77
2022-09-07T13:21:32.331Z,10.74
2022-09-07T13:27:11.937Z,10.71
2022-09-07T13:29:46.836Z,10.74
2022-09-07T13:35:22.953Z,10.71
2022-09-07T13:37:58.198Z,10.60
2022-09-07T13:40:33.996Z,10.55
2022-09-07T13:43:08.533Z,10.52
2022-09-07T13:46:05.074Z,10.48
2022-09-07T13:48:49.012Z,10.42
2022-09-07T13:51:45.716Z,10.40
2022-09-07T13:54:26.853Z,10.42
2022-09-07T13:57:04.768Z,10.39
2022-09-07T13:59:37.335Z,10.42
2022-09-07T14:02:27.520Z,10.41
2022-09-07T14:05:01.626Z,10.38
2022-09-07T14:07:34.014Z,10.40
2022-09-07T14:10:09.132Z,10.43
2022-09-07T14:12:50.709Z,10.43
2022-09-07T14:15:25.907Z,10.40
2022-09-07T14:18:06.741Z,10.38
2022-09-07T14:20:44.528Z,10.37
2022-09-07T14:23:35.241Z,10.36
2022-09-07T14:26:17.611Z,10.37
2022-09-07T14:28:53.184Z,10.37
2022-09-07T14:31:26.899Z,10.46
2022-09-07T14:34:01.682Z,10.48
2022-09-07T14:36:45.231Z,10.52
2022-09-07T14:39:18.339Z,10.58
2022-09-07T14:41:51.507Z,10.61
2022-09-07T14:44:39.067Z,10.76
2022-09-07T14:47:29.690Z,10.67
2022-09-07T14:50:06.188Z,10.72
2022-09-07T14:53:33.114Z,10.82
2022-09-07T14:55:33.534Z,10.92
2022-09-07T14:58:17.462Z,11.08
2022-09-07T15:03:36.361Z,11.27
2022-09-07T15:07:00.778Z,11.40
2022-09-07T15:08:49.966Z,11.40
2022-09-07T15:11:34.300Z,11.39
2022-09-07T15:14:10.525Z,11.47
2022-09-07T15:16:45.614Z,11.40
2022-09-07T15:19:21.087Z,11.43
2022-09-07T15:21:53.137Z,11.40
2022-09-07T15:24:25.574Z,11.42
2022-09-07T15:27:04.678Z,11.46
2022-09-07T15:29:32.345Z,11.48
2022-09-07T15:32:08.306Z,11.51
2022-09-07T15:34:40.953Z,11.52
2022-09-07T15:39:47.765Z,11.47
2022-09-07T15:44:54.057Z,11.42
2022-09-07T15:50:00.341Z,11.35
2022-09-07T15:52:36.136Z,11.29
2022-09-07T15:55:09.316Z,11.26
2022-09-07T15:57:51.353Z,11.20
2022-09-07T16:00:15.774Z,11.20
2022-09-07T16:03:06.500Z,11.10
2022-09-07T16:05:27.937Z,11.02
2022-09-07T16:10:32.311Z,10.85
2022-09-07T16:13:10.908Z,10.87
2022-09-07T16:15:46.054Z,10.79
2022-09-07T16:18:20.265Z,10.82
2022-09-07T16:20:53.207Z,10.82
2022-09-07T16:23:25.738Z,10.83
2022-09-07T16:26:00.871Z,10.86
2022-09-07T16:28:33.593Z,10.91
2022-09-07T16:31:09.160Z,10.93
2022-09-07T16:33:41.582Z,10.97
2022-09-07T16:36:16.147Z,10.92
2022-09-07T16:38:51.450Z,10.90
2022-09-07T16:41:27.544Z,10.92
2022-09-07T16:44:00.717Z,10.97
2022-09-07T16:46:34.849Z,10.95
2022-09-07T16:49:07.838Z,11.01
2022-09-07T16:51:40.828Z,11.03
2022-09-07T16:54:15.940Z,11.00
2022-09-07T16:56:48.460Z,10.98
2022-09-07T16:59:23.131Z,10.96
2022-09-07T17:01:56.790Z,10.94
2022-09-07T17:04:29.394Z,10.95
2022-09-07T17:07:02.434Z,10.98
2022-09-07T17:09:34.910Z,10.97
2022-09-07T17:12:09.021Z,10.96
2022-09-07T17:14:41.642Z,10.95
2022-09-07T17:17:15.870Z,10.95
2022-09-07T17:19:48.494Z,10.98
2022-09-07T17:22:20.751Z,10.97
2022-09-07T17:24:53.266Z,10.98
2022-09-07T17:27:27.244Z,10.96
2022-09-07T17:30:00.175Z,10.94
2022-09-07T17:32:34.236Z,10.95
2022-09-07T17:35:06.894Z,10.95
2022-09-07T17:37:40.557Z,10.99
2022-09-07T17:40:13.260Z,10.94
2022-09-07T17:45:20.158Z,10.77
2022-09-07T17:47:52.610Z,10.63
2022-09-07T17:50:24.607Z,10.50
2022-09-07T17:52:56.791Z,10.41
2022-09-07T17:55:31.889Z,10.28
2022-09-07T17:58:04.852Z,10.21
2022-09-07T18:00:38.042Z,10.10
2022-09-07T18:03:12.161Z,10.03
2022-09-07T18:05:45.004Z,9.99
2022-09-07T18:08:17.494Z,9.92
2022-09-07T18:13:35.090Z,9.77
2022-09-07T18:15:58.132Z,9.73
2022-09-07T18:18:30.447Z,9.80
2022-09-07T18:21:02.480Z,9.65
2022-09-07T18:23:35.582Z,9.60
2022-09-07T18:26:08.268Z,9.63
2022-09-07T18:31:14.209Z,9.48
2022-09-07T18:33:47.678Z,9.43
2022-09-07T18:36:20.101Z,9.33
2022-09-07T18:38:52.611Z,9.31
2022-09-07T18:41:24.856Z,9.30
2022-09-07T18:43:57.342Z,9.33
2022-09-07T18:46:29.753Z,9.33
2022-09-07T18:49:01.849Z,9.32
2022-09-07T18:52:51.542Z,9.32
2022-09-07T18:54:07.780Z,9.40
2022-09-07T18:56:39.786Z,9.45
2022-09-07T18:59:13.550Z,9.53
2022-09-07T19:01:46.148Z,9.63
2022-09-07T19:04:18.272Z,9.69
2022-09-07T19:06:50.465Z,9.78
2022-09-07T19:09:22.469Z,9.80
2022-09-07T19:11:55.525Z,9.87
2022-09-07T19:14:29.818Z,9.86
2022-09-07T19:17:01.826Z,9.93
2022-09-07T19:19:34.452Z,9.94
2022-09-07T19:22:06.425Z,9.92
2022-09-07T19:24:38.373Z,9.83
2022-09-07T19:27:10.515Z,9.79
2022-09-07T19:29:42.558Z,9.74
2022-09-07T19:32:14.662Z,9.71
2022-09-07T19:34:47.506Z,9.73
2022-09-07T19:37:19.536Z,9.72
2022-09-07T19:39:51.855Z,9.72
2022-09-07T19:42:24.632Z,9.73
2022-09-07T19:44:56.587Z,9.78
2022-09-07T19:47:28.840Z,9.81
2022-09-07T19:50:00.898Z,9.87
2022-09-07T19:52:33.415Z,9.94
2022-09-07T19:55:05.378Z,9.98
2022-09-07T19:57:37.329Z,10.03
2022-09-07T20:00:10.382Z,10.06
2022-09-07T20:02:45.188Z,10.10
2022-09-07T20:05:18.219Z,10.14
2022-09-07T20:07:50.710Z,10.16
2022-09-07T20:10:22.892Z,10.14
2022-09-07T20:12:55.041Z,10.15
2022-09-07T20:15:27.357Z,10.13
2022-09-07T20:17:59.817Z,10.13
2022-09-07T20:20:33.377Z,10.13
2022-09-07T20:23:05.426Z,10.15
2022-09-07T20:25:37.817Z,10.19
2022-09-07T20:28:10.100Z,10.24
2022-09-07T20:30:44.404Z,10.22
2022-09-07T20:33:16.548Z,10.25
2022-09-07T20:35:48.782Z,10.27
2022-09-07T20:38:22.338Z,10.33
2022-09-07T20:41:02.155Z,10.34
2022-09-07T20:43:34.692Z,10.37
2022-09-07T20:46:08.734Z,10.40
2022-09-07T20:48:41.049Z,10.39
2022-09-07T20:51:20.232Z,10.50
2022-09-07T20:53:50.236Z,10.39
2022-09-07T20:56:24.601Z,10.30
2022-09-07T20:59:00.317Z,10.28
2022-09-07T21:01:35.062Z,10.21
2022-09-07T21:04:07.776Z,10.26
2022-09-07T21:06:39.843Z,10.27
2022-09-07T21:09:11.889Z,10.16
2022-09-07T21:11:48.586Z,10.11
2022-09-07T21:14:19.399Z,10.10
2022-09-07T21:16:51.686Z,10.08
2022-09-07T21:19:23.646Z,10.08
2022-09-07T21:21:55.633Z,10.07
2022-09-07T21:24:27.704Z,10.06
2022-09-07T21:27:00.278Z,10.06
2022-09-07T21:29:32.485Z,10.06
2022-09-07T21:32:04.974Z,10.07
2022-09-07T21:34:36.957Z,10.07
2022-09-07T21:37:08.944Z,10.10
2022-09-07T21:39:41.301Z,10.11
2022-09-07T21:42:13.352Z,10.12
2022-09-07T21:44:46.531Z,10.12
2022-09-07T21:47:18.936Z,10.13
2022-09-07T21:49:51.184Z,10.15
2022-09-07T21:52:23.146Z,10.16
2022-09-07T21:54:55.505Z,10.17
2022-09-07T21:57:28.047Z,10.15
2022-09-07T22:00:00.768Z,10.14
2022-09-07T22:02:34.740Z,10.15
2022-09-07T22:05:07.363Z,10.15
2022-09-07T22:07:39.331Z,10.13
2022-09-07T22:10:14.010Z,10.15
2022-09-07T22:12:45.227Z,10.13
2022-09-07T22:15:17.132Z,10.30
2022-09-07T22:17:49.507Z,10.16
2022-09-07T22:20:21.878Z,10.15
2022-09-07T22:22:53.962Z,10.13
2022-09-07T22:25:26.569Z,10.15
2022-09-07T22:27:59.297Z,10.14
2022-09-07T22:30:31.647Z,10.15
2022-09-07T22:33:03.763Z,10.14
2022-09-07T22:35:36.298Z,10.14
2022-09-07T22:38:08.406Z,10.14
2022-09-07T22:40:41.032Z,10.13
2022-09-07T22:43:13.181Z,10.14
2022-09-07T22:45:47.779Z,10.13
2022-09-07T22:48:20.101Z,10.12
2022-09-07T22:50:59.082Z,10.13
2022-09-07T22:53:34.275Z,10.14
2022-09-07T22:56:11.940Z,10.15
2022-09-07T22:58:49.557Z,10.17
2022-09-07T23:01:22.417Z,10.20
2022-09-07T23:03:55.614Z,10.20
2022-09-07T23:06:30.030Z,10.21
2022-09-07T23:09:04.242Z,10.22
2022-09-07T23:11:35.979Z,10.23
2022-09-07T23:14:11.030Z,10.46
2022-09-07T23:16:43.762Z,10.29
2022-09-07T23:19:17.615Z,10.26
2022-09-07T23:21:50.197Z,10.24
2022-09-07T23:24:22.510Z,10.22
2022-09-07T23:26:54.482Z,10.18
2022-09-07T23:29:26.683Z,10.19
2022-09-07T23:31:58.702Z,10.19
2022-09-07T23:34:31.003Z,10.15
2022-09-07T23:37:03.208Z,10.17
2022-09-07T23:39:35.454Z,10.15
2022-09-07T23:42:07.615Z,10.12
2022-09-07T23:44:39.726Z,10.14
2022-09-07T23:47:11.532Z,10.15
2022-09-07T23:49:43.651Z,10.13
2022-09-07T23:52:15.613Z,10.14
2022-09-07T23:54:47.623Z,10.14
2022-09-07T23:57:19.695Z,10.16
2022-09-07T23:59:51.765Z,10.13
